Time;durP1;ratioP1;P1;durP2;ratioP2;P2;SDS_P1;SDS_P2;PMS_P1;PMS_P2;Temp;Humidity;BMP_temperature;BMP_pressure;BME280_temperature;BME280_humidity;BME280_pressure;Samples;Min_cycle;Max_cycle;Signal;HPM_P1;HPM_P2
2023/04/23 00:00:31;;;;;;;;;;;;;;;;;;7596866;23;20038;-81
2023/04/23 00:03:33;;;;;;;;;;;;;;;;;;7596871;23;19912;-81
2023/04/23 00:06:33;;;;;;;;;;;;;;;;;;7596684;23;19928;-81
2023/04/23 00:09:33;;;;;;;;;;;;;;;;;;7596646;23;19912;-81
2023/04/23 00:12:33;;;;;;;;;;;;;;;;;;7596531;23;19993;-81
2023/04/23 00:15:33;;;;;;;;;;;;;;;;;;7597026;23;19905;-81
2023/04/23 00:18:33;;;;;;;;;;;;;;;;;;7596972;23;19974;-81
2023/04/23 00:21:34;;;;;;;;;;;;;;;;;;7597641;23;19905;-81
2023/04/23 00:24:37;;;;;;;;;;;;;;;;;;7571116;23;19962;-81
2023/04/23 00:27:37;;;;;;;;;;;;;;;;;;7596901;23;20324;-81
2023/04/23 00:30:37;;;;;;;;;;;;;;;;;;7596269;23;19952;-81
2023/04/23 00:33:38;;;;;;;;;;;;;;;;;;7597101;23;19916;-81
2023/04/23 00:36:38;;;;;;;;;;;;;;;;;;7596125;23;19951;-81
2023/04/23 00:39:38;;;;;;;;;;;;;;;;;;7596628;23;19950;-81
2023/04/23 00:42:38;;;;;;;;;;;;;;;;;;7597063;23;20317;-81
2023/04/23 00:45:39;;;;;;;;;;;;;;;;;;7596256;23;19909;-80
2023/04/23 00:48:39;;;;;;;;;;;;;;;;;;7596468;23;19920;-80
2023/04/23 00:51:39;;;;;;;;;;;;;;;;;;7596557;23;20447;-81
2023/04/23 00:54:39;;;;;;;;;;;;;;;;;;7596499;23;19908;-81
2023/04/23 00:57:39;;;;;;;;;;;;;;;;;;7597020;23;19905;-81
2023/04/23 01:00:40;;;;;;;;;;;;;;;;;;7596584;23;19900;-81
2023/04/23 01:03:41;;;;;;;;;;;;;;;;;;7596270;23;19905;-81
2023/04/23 01:06:41;;;;;;;;;;;;;;;;;;7596475;23;19976;-81
2023/04/23 01:09:41;;;;;;;;;;;;;;;;;;7595043;23;20291;-77
2023/04/23 01:12:43;;;;;;;;;;;;;;;;;;7597064;23;19956;-77
2023/04/23 01:15:43;;;;;;;;;;;;;;;;;;7596904;23;19962;-77
2023/04/23 01:18:43;;;;;;;;;;;;;;;;;;7596388;23;20259;-77
2023/04/23 01:21:43;;;;;;;;;;;;;;;;;;7596420;23;20396;-77
2023/04/23 01:24:43;;;;;;;;;;;;;;;;;;7596073;23;19904;-77
2023/04/23 01:27:43;;;;;;;;;;;;;;;;;;7596157;23;20344;-77
2023/04/23 01:30:43;;;;;;;;;;;;;;;;;;7570307;23;20322;-77
2023/04/23 01:33:43;;;;;;;;;;;;;;;;;;7596434;23;20222;-77
2023/04/23 01:36:44;;;;;;;;;;;;;;;;;;7596294;23;19982;-77
2023/04/23 01:39:44;;;;;;;;;;;;;;;;;;7596139;23;20352;-77
2023/04/23 01:42:46;;;;;;;;;;;;;;;;;;7596540;23;19905;-77
2023/04/23 01:45:46;;;;;;;;;;;;;;;;;;7595606;23;19911;-76
2023/04/23 01:48:46;;;;;;;;;;;;;;;;;;7596438;23;20545;-77
2023/04/23 01:51:46;;;;;;;;;;;;;;;;;;7595110;23;19909;-77
2023/04/23 01:54:47;;;;;;;;;;;;;;;;;;7597056;23;19913;-77
2023/04/23 01:57:47;;;;;;;;;;;;;;;;;;7570188;23;19908;-77
2023/04/23 02:00:47;;;;;;;;;;;;;;;;;;7595919;23;20288;-77
2023/04/23 02:03:47;;;;;;;;;;;;;;;;;;7596128;23;19944;-77
2023/04/23 02:06:47;;;;;;;;;;;;;;;;;;7595712;23;19905;-77
2023/04/23 02:09:47;;;;;;;;;;;;;;;;;;7595847;23;20006;-77
2023/04/23 02:12:47;;;;;;;;;;;;;;;;;;7595834;23;19909;-77
2023/04/23 02:15:47;;;;;;;;;;;;;;;;;;7596728;23;19908;-77
2023/04/23 02:18:47;;;;;;;;;;;;;;;;;;7596898;23;19901;-77
2023/04/23 02:21:48;;;;;;;;;;;;;;;;;;7596028;23;19901;-77
2023/04/23 02:24:49;;;;;;;;;;;;;;;;;;7596530;23;19901;-77
2023/04/23 02:27:49;;;;;;;;;;;;;;;;;;7595575;23;19905;-77
2023/04/23 02:30:50;;;;;;;;;;;;;;;;;;7596299;23;19929;-77
2023/04/23 02:33:50;;;;;;;;;;;;;;;;;;7595857;23;19909;-77
2023/04/23 02:36:50;;;;;;;;;;;;;;;;;;7596127;23;19909;-77
2023/04/23 02:39:51;;;;;;;;;;;;;;;;;;7595170;23;20271;-78
2023/04/23 02:42:51;;;;;;;;;;;;;;;;;;7569743;23;19958;-77
2023/04/23 02:45:51;;;;;;;;;;;;;;;;;;7595766;23;19905;-77
2023/04/23 02:48:51;;;;;;;;;;;;;;;;;;7596007;23;20376;-77
2023/04/23 02:51:51;;;;;;;;;;;;;;;;;;7595290;23;20362;-77
2023/04/23 02:54:51;;;;;;;;;;;;;;;;;;7570152;23;20387;-77
2023/04/23 02:57:51;;;;;;;;;;;;;;;;;;7595680;23;19909;-77
2023/04/23 03:00:51;;;;;;;;;;;;;;;;;;7595858;23;19932;-77
2023/04/23 03:03:52;;;;;;;;;;;;;;;;;;7596190;23;20318;-77
2023/04/23 03:06:53;;;;;;;;;;;;;;;;;;7596999;23;20102;-77
2023/04/23 03:09:53;;;;;;;;;;;;;;;;;;7596614;23;19913;-77
2023/04/23 03:12:55;;;;;;;;;;;;;;;;;;7597138;23;20347;-77
2023/04/23 03:15:55;;;;;;;;;;;;;;;;;;7597154;23;19905;-77
2023/04/23 03:18:55;;;;;;;;;;;;;;;;;;7597041;23;19904;-77
2023/04/23 03:21:55;;;;;;;;;;;;;;;;;;7596697;23;19955;-77
2023/04/23 03:24:56;;;;;;;;;;;;;;;;;;7596725;23;20372;-77
2023/04/23 03:27:56;;;;;;;;;;;;;;;;;;7597406;23;19905;-78
2023/04/23 03:30:56;;;;;;;;;;;;;;;;;;7597104;23;19901;-77
2023/04/23 03:33:56;;;;;;;;;;;;;;;;;;7594189;23;19905;-77
2023/04/23 03:36:56;;;;;;;;;;;;;;;;;;7596897;23;20104;-77
2023/04/23 03:39:56;;;;;;;;;;;;;;;;;;7596675;23;20415;-76
2023/04/23 03:42:56;;;;;;;;;;;;;;;;;;7596552;23;20030;-77
2023/04/23 03:45:57;;;;;;;;;;;;;;;;;;7597536;23;19948;-77
2023/04/23 03:48:57;;;;;;;;;;;;;;;;;;7596573;23;19965;-77
2023/04/23 03:51:57;;;;;;;;;;;;;;;;;;7596419;23;19909;-77
2023/04/23 03:54:57;;;;;;;;;;;;;;;;;;7596480;23;19916;-77
2023/04/23 03:57:59;;;;;;;;;;;;;;;;;;7596446;23;19905;-77
2023/04/23 04:00:59;;;;;;;;;;;;;;;;;;7596684;23;19946;-77
2023/04/23 04:03:59;;;;;;;;;;;;;;;;;;7596578;23;19905;-77
2023/04/23 04:06:59;;;;;;;;;;;;;;;;;;7596525;23;19913;-77
2023/04/23 04:10:02;;;;;;;;;;;;;;;;;;7595788;23;19928;-77
2023/04/23 04:13:02;;;;;;;;;;;;;;;;;;7597141;23;19912;-77
2023/04/23 04:16:02;;;;;;;;;;;;;;;;;;7596462;23;19927;-77
2023/04/23 04:19:02;;;;;;;;;;;;;;;;;;7570395;23;20313;-77
2023/04/23 04:22:02;;;;;;;;;;;;;;;;;;7596197;23;19905;-77
2023/04/23 04:25:04;;;;;;;;;;;;;;;;;;7597128;23;19905;-77
2023/04/23 04:28:04;;;;;;;;;;;;;;;;;;7595970;23;19901;-77
2023/04/23 04:31:04;;;;;;;;;;;;;;;;;;7571622;23;19946;-82
2023/04/23 04:34:06;;;;;;;;;;;;;;;;;;7596320;23;19912;-82
2023/04/23 04:37:06;;;;;;;;;;;;;;;;;;7596449;23;19905;-81
2023/04/23 04:40:06;;;;;;;;;;;;;;;;;;7570607;23;19904;-82
2023/04/23 04:43:06;;;;;;;;;;;;;;;;;;7570671;23;19954;-82
2023/04/23 04:46:10;;;;;;;;;;;;;;;;;;7595917;23;19905;-82
2023/04/23 04:49:10;;;;;;;;;;;;;;;;;;7597302;23;19912;-82
2023/04/23 04:52:10;;;;;;;;;;;;;;;;;;7596587;23;19909;-82
2023/04/23 04:55:10;;;;;;;;;;;;;;;;;;7597326;23;19905;-82
2023/04/23 04:58:11;;;;;;;;;;;;;;;;;;7596566;23;19905;-82
2023/04/23 05:01:12;;;;;;;;;;;;;;;;;;7595336;23;20245;-81
2023/04/23 05:04:12;;;;;;;;;;;;;;;;;;7595144;23;19901;-81
2023/04/23 05:07:12;;;;;;;;;;;;;;;;;;7595329;23;19990;-82
2023/04/23 05:10:12;;;;;;;;;;;;;;;;;;7596581;23;20279;-82
2023/04/23 05:13:12;;;;;;;;;;;;;;;;;;7595322;23;19913;-83
2023/04/23 05:16:13;;;;;;;;;;;;;;;;;;7596154;23;19900;-81
2023/04/23 05:19:13;;;;;;;;;;;;;;;;;;7595718;23;19905;-82
2023/04/23 05:22:13;;;;;;;;;;;;;;;;;;7594393;23;19944;-82
2023/04/23 05:25:13;;;;;;;;;;;;;;;;;;7595559;23;19939;-82
2023/04/23 05:28:14;;;;;;;;;;;;;;;;;;7569056;23;20245;-82
2023/04/23 05:31:14;;;;;;;;;;;;;;;;;;7594723;23;19904;-82
2023/04/23 05:34:14;;;;;;;;;;;;;;;;;;7595751;23;19909;-82
2023/04/23 05:37:15;;;;;;;;;;;;;;;;;;7596861;23;19987;-82
2023/04/23 05:40:15;;;;;;;;;;;;;;;;;;7597683;23;19912;-82
2023/04/23 05:43:15;;;;;;;;;;;;;;;;;;7597464;23;19911;-83
2023/04/23 05:46:15;;;;;;;;;;;;;;;;;;7596279;23;20336;-82
2023/04/23 05:49:15;;;;;;;;;;;;;;;;;;7597240;23;19908;-77
2023/04/23 05:52:15;;;;;;;;;;;;;;;;;;7569903;23;20003;-78
2023/04/23 05:55:17;;;;;;;;;;;;;;;;;;7597084;23;19909;-77
2023/04/23 05:58:18;;;;;;;;;;;;;;;;;;7596064;23;19905;-78
2023/04/23 06:01:18;;;;;;;;;;;;;;;;;;7590487;23;20228;-78
2023/04/23 06:04:18;;;;;;;;;;;;;;;;;;7595053;23;19901;-77
2023/04/23 06:07:18;;;;;;;;;;;;;;;;;;7595349;23;19905;-78
2023/04/23 06:10:18;;;;;;;;;;;;;;;;;;7595027;23;19978;-78
2023/04/23 06:13:18;;;;;;;;;;;;;;;;;;7593099;23;20222;-78
2023/04/23 06:16:18;;;;;;;;;;;;;;;;;;7595224;23;19905;-78
2023/04/23 06:19:19;;;;;;;;;;;;;;;;;;7595192;23;19901;-78
2023/04/23 06:22:19;;;;;;;;;;;;;;;;;;7594410;23;19901;-78
2023/04/23 06:25:20;;;;;;;;;;;;;;;;;;7593581;23;19916;-78
2023/04/23 06:28:20;;;;;;;;;;;;;;;;;;7592828;23;19908;-78
2023/04/23 06:31:20;;;;;;;;;;;;;;;;;;7568906;23;20384;-78
2023/04/23 06:34:21;;;;;;;;;;;;;;;;;;7592340;23;19912;-77
2023/04/23 06:37:21;;;;;;;;;;;;;;;;;;7567584;23;19901;-77
2023/04/23 06:40:21;;;;;;;;;;;;;;;;;;7594885;23;20248;-77
2023/04/23 06:43:21;;;;;;;;;;;;;;;;;;7595744;23;19947;-77
2023/04/23 06:46:21;;;;;;;;;;;;;;;;;;7595869;23;19940;-78
2023/04/23 06:49:21;;;;;;;;;;;;;;;;;;7595480;23;19901;-81
2023/04/23 06:52:21;;;;;;;;;;;;;;;;;;7595067;23;19912;-82
2023/04/23 06:55:26;;;;;;;;;;;;;;;;;;7568775;23;20697;-82
2023/04/23 06:58:30;;;;;;;;;;;;;;;;;;7594109;23;19901;-80
2023/04/23 07:01:30;;;;;;;;;;;;;;;;;;7594901;23;19901;-77
2023/04/23 07:04:30;;;;;;;;;;;;;;;;;;7595459;23;19901;-77
2023/04/23 07:07:30;;;;;;;;;;;;;;;;;;7595914;23;19912;-77
2023/04/23 07:10:30;;;;;;;;;;;;;;;;;;7593868;23;19984;-77
2023/04/23 07:13:30;;;;;;;;;;;;;;;;;;7593429;23;19908;-77
2023/04/23 07:16:32;;;;;;;;;;;;;;;;;;7591485;23;20371;-76
2023/04/23 07:19:32;;;;;;;;;;;;;;;;;;7593286;23;19979;-77
2023/04/23 07:22:32;;;;;;;;;;;;;;;;;;7566554;23;19911;-76
2023/04/23 07:25:33;;;;;;;;;;;;;;;;;;7592689;23;19905;-78
2023/04/23 07:28:33;;;;;;;;;;;;;;;;;;7593717;23;19901;-78
2023/04/23 07:31:33;;;;;;;;;;;;;;;;;;7595426;23;19904;-78
2023/04/23 07:34:35;;;;;;;;;;;;;;;;;;7595200;23;19944;-78
2023/04/23 07:37:35;;;;;;;;;;;;;;;;;;7569013;23;19929;-78
2023/04/23 07:40:35;;;;;;;;;;;;;;;;;;7594759;23;19975;-78
2023/04/23 07:43:36;;;;;;;;;;;;;;;;;;7592307;23;19920;-78
2023/04/23 07:46:36;;;;;;;;;;;;;;;;;;7594547;23;19908;-78
2023/04/23 07:49:36;;;;;;;;;;;;;;;;;;7596510;23;19908;-78
2023/04/23 07:52:36;;;;;;;;;;;;;;;;;;7569530;23;19905;-78
2023/04/23 07:55:36;;;;;;;;;;;;;;;;;;7596821;23;19947;-78
2023/04/23 07:58:36;;;;;;;;;;;;;;;;;;7596030;23;19904;-78
2023/04/23 08:01:36;;;;;;;;;;;;;;;;;;7596745;23;19901;-77
2023/04/23 08:04:36;;;;;;;;;;;;;;;;;;7596220;23;19901;-78
2023/04/23 08:07:37;;;;;;;;;;;;;;;;;;7597233;23;19905;-78
2023/04/23 08:10:38;;;;;;;;;;;;;;;;;;7597030;23;19935;-82
2023/04/23 08:13:38;;;;;;;;;;;;;;;;;;7597640;23;19913;-82
2023/04/23 08:16:38;;;;;;;;;;;;;;;;;;7598395;23;19912;-82
2023/04/23 08:19:38;;;;;;;;;;;;;;;;;;7597885;23;19928;-82
2023/04/23 08:22:38;;;;;;;;;;;;;;;;;;7598290;23;20321;-82
2023/04/23 08:25:39;;;;;;;;;;;;;;;;;;7597282;23;19905;-82
2023/04/23 08:28:39;;;;;;;;;;;;;;;;;;7597550;23;20252;-81
2023/04/23 08:31:39;;;;;;;;;;;;;;;;;;7597866;23;19954;-81
2023/04/23 08:34:40;;;;;;;;;;;;;;;;;;7597574;23;19905;-82
2023/04/23 08:37:40;;;;;;;;;;;;;;;;;;7597778;23;19905;-81
2023/04/23 08:40:41;;;;;;;;;;;;;;;;;;7572421;23;19908;-82
2023/04/23 08:43:41;;;;;;;;;;;;;;;;;;7597799;23;19908;-82
2023/04/23 08:46:43;;;;;;;;;;;;;;;;;;7600080;23;19909;-82
2023/04/23 08:49:43;;;;;;;;;;;;;;;;;;7598444;23;19912;-81
2023/04/23 08:52:43;;;;;;;;;;;;;;;;;;7597259;23;19912;-80
2023/04/23 08:55:44;;;;;;;;;;;;;;;;;;7597748;23;19987;-82
2023/04/23 08:58:46;;;;;;;;;;;;;;;;;;7599844;23;19905;-82
2023/04/23 09:01:46;;;;;;;;;;;;;;;;;;7598829;23;19905;-81
2023/04/23 09:04:47;;;;;;;;;;;;;;;;;;7598567;23;19909;-81
2023/04/23 09:07:50;;;;;;;;;;;;;;;;;;7596634;23;19962;-81
2023/04/23 09:10:50;;;;;;;;;;;;;;;;;;7595972;23;20276;-77
2023/04/23 09:13:50;;;;;;;;;;;;;;;;;;7595342;23;19913;-77
2023/04/23 09:16:50;;;;;;;;;;;;;;;;;;7596444;23;19901;-78
2023/04/23 09:19:51;;;;;;;;;;;;;;;;;;7569796;23;19905;-78
2023/04/23 09:22:54;;;;;;;;;;;;;;;;;;7596156;23;19968;-78
2023/04/23 09:25:54;;;;;;;;;;;;;;;;;;7593804;23;19905;-78
2023/04/23 09:28:54;;;;;;;;;;;;;;;;;;7594587;23;19904;-78
2023/04/23 09:31:54;;;;;;;;;;;;;;;;;;7595974;23;20366;-78
2023/04/23 09:34:54;;;;;;;;;;;;;;;;;;7569885;23;19990;-78
2023/04/23 09:37:54;;;;;;;;;;;;;;;;;;7594335;23;20353;-78
2023/04/23 09:40:54;;;;;;;;;;;;;;;;;;7595854;23;19905;-78
2023/04/23 09:43:55;;;;;;;;;;;;;;;;;;7595789;23;20313;-78
2023/04/23 09:46:55;;;;;;;;;;;;;;;;;;7596548;23;19901;-78
2023/04/23 09:49:55;;;;;;;;;;;;;;;;;;7596095;23;19962;-78
2023/04/23 09:52:55;;;;;;;;;;;;;;;;;;7595693;23;20244;-78
2023/04/23 09:55:56;;;;;;;;;;;;;;;;;;7595435;23;19908;-77
2023/04/23 09:58:56;;;;;;;;;;;;;;;;;;7595135;23;19950;-77
2023/04/23 10:01:56;;;;;;;;;;;;;;;;;;7595080;23;19908;-77
2023/04/23 10:04:56;;;;;;;;;;;;;;;;;;7596222;23;20332;-77
2023/04/23 10:07:56;;;;;;;;;;;;;;;;;;7595149;23;20008;-77
2023/04/23 10:10:56;;;;;;;;;;;;;;;;;;7595868;23;19919;-77
2023/04/23 10:13:56;;;;;;;;;;;;;;;;;;7595109;23;19920;-77
2023/04/23 10:16:56;;;;;;;;;;;;;;;;;;7595957;23;20292;-78
2023/04/23 10:19:57;;;;;;;;;;;;;;;;;;7598073;23;19972;-80
2023/04/23 10:22:57;;;;;;;;;;;;;;;;;;7596727;23;19915;-81
2023/04/23 10:25:57;;;;;;;;;;;;;;;;;;7596325;23;19970;-81
2023/04/23 10:28:58;;;;;;;;;;;;;;;;;;7596653;23;19951;-81
2023/04/23 10:31:58;;;;;;;;;;;;;;;;;;7598586;23;19905;-80
2023/04/23 10:34:58;;;;;;;;;;;;;;;;;;7598547;23;19954;-82
2023/04/23 10:37:58;;;;;;;;;;;;;;;;;;7571146;23;20333;-82
2023/04/23 10:40:58;;;;;;;;;;;;;;;;;;7598790;23;20275;-82
2023/04/23 10:43:58;;;;;;;;;;;;;;;;;;7598681;23;19901;-81
2023/04/23 10:47:01;;;;;;;;;;;;;;;;;;7598373;23;19947;-80
2023/04/23 10:50:02;;;;;;;;;;;;;;;;;;7597760;23;19905;-81
2023/04/23 10:53:02;;;;;;;;;;;;;;;;;;7598107;23;19911;-80
2023/04/23 10:56:03;;;;;;;;;;;;;;;;;;7597190;23;19905;-81
2023/04/23 10:59:03;;;;;;;;;;;;;;;;;;7599353;23;20314;-81
2023/04/23 11:02:03;;;;;;;;;;;;;;;;;;7600756;23;19912;-81
2023/04/23 11:05:06;;;;;;;;;;;;;;;;;;7601842;23;19955;-81
2023/04/23 11:08:07;;;;;;;;;;;;;;;;;;7573585;23;19901;-82
2023/04/23 11:11:07;;;;;;;;;;;;;;;;;;7598295;23;19924;-81
2023/04/23 11:14:07;;;;;;;;;;;;;;;;;;7597645;23;19916;-81
2023/04/23 11:17:07;;;;;;;;;;;;;;;;;;7599772;23;19912;-80
2023/04/23 11:20:12;;;;;;;;;;;;;;;;;;7603445;23;19909;-81
2023/04/23 11:23:12;;;;;;;;;;;;;;;;;;7604209;23;19955;-81
2023/04/23 11:26:12;;;;;;;;;;;;;;;;;;7603592;23;19901;-81
2023/04/23 11:29:14;;;;;;;;;;;;;;;;;;7602071;23;20325;-81
2023/04/23 11:32:14;;;;;;;;;;;;;;;;;;7598559;23;19905;-82
2023/04/23 11:35:14;;;;;;;;;;;;;;;;;;7597867;23;19915;-81
2023/04/23 11:38:15;;;;;;;;;;;;;;;;;;7597778;23;19905;-81
2023/04/23 11:41:16;;;;;;;;;;;;;;;;;;7597138;23;20023;-77
2023/04/23 11:44:16;;;;;;;;;;;;;;;;;;7597022;23;19905;-77
2023/04/23 11:47:17;;;;;;;;;;;;;;;;;;7597083;23;19939;-77
2023/04/23 11:50:17;;;;;;;;;;;;;;;;;;7597113;23;19958;-77
2023/04/23 11:53:18;;;;;;;;;;;;;;;;;;7596767;23;19917;-77
2023/04/23 11:56:19;;;;;;;;;;;;;;;;;;7590453;23;19999;-77
2023/04/23 11:59:19;;;;;;;;;;;;;;;;;;7596135;23;19912;-77
2023/04/23 12:02:19;;;;;;;;;;;;;;;;;;7592905;23;19909;-77
2023/04/23 12:05:21;;;;;;;;;;;;;;;;;;7597100;23;20426;-77
2023/04/23 12:08:21;;;;;;;;;;;;;;;;;;7570548;23;19936;-77
2023/04/23 12:11:22;;;;;;;;;;;;;;;;;;7595872;23;19987;-77
2023/04/23 12:14:25;;;;;;;;;;;;;;;;;;7596889;23;19911;-77
2023/04/23 12:17:26;;;;;;;;;;;;;;;;;;7596388;23;19928;-77
2023/04/23 12:20:27;;;;;;;;;;;;;;;;;;7596314;23;19983;-77
2023/04/23 12:23:27;;;;;;;;;;;;;;;;;;7596134;23;19905;-77
2023/04/23 12:26:28;;;;;;;;;;;;;;;;;;7596063;23;19927;-75
2023/04/23 12:29:28;;;;;;;;;;;;;;;;;;7595630;23;19901;-77
2023/04/23 12:32:28;;;;;;;;;;;;;;;;;;7596132;23;20310;-78
2023/04/23 12:35:28;;;;;;;;;;;;;;;;;;7595853;23;19901;-78
2023/04/23 12:38:28;;;;;;;;;;;;;;;;;;7597017;23;19908;-78
2023/04/23 12:41:29;;;;;;;;;;;;;;;;;;7596570;23;19901;-81
2023/04/23 12:44:29;;;;;;;;;;;;;;;;;;7596730;23;19979;-81
2023/04/23 12:47:29;;;;;;;;;;;;;;;;;;7595548;23;19908;-79
2023/04/23 12:50:29;;;;;;;;;;;;;;;;;;7593929;23;19905;-81
2023/04/23 12:53:29;;;;;;;;;;;;;;;;;;7595775;23;20336;-79
2023/04/23 12:56:29;;;;;;;;;;;;;;;;;;7596135;23;20035;-79
2023/04/23 12:59:29;;;;;;;;;;;;;;;;;;7595882;23;20390;-79
2023/04/23 13:02:30;;;;;;;;;;;;;;;;;;7595912;23;19905;-80
2023/04/23 13:05:30;;;;;;;;;;;;;;;;;;7596029;23;19983;-80
2023/04/23 13:08:30;;;;;;;;;;;;;;;;;;7595466;23;19905;-80
2023/04/23 13:11:31;;;;;;;;;;;;;;;;;;7594874;23;20388;-79
2023/04/23 13:14:31;;;;;;;;;;;;;;;;;;7596156;23;19913;-80
2023/04/23 13:17:31;;;;;;;;;;;;;;;;;;7595584;23;19912;-80
2023/04/23 13:20:33;;;;;;;;;;;;;;;;;;7596112;23;19951;-80
2023/04/23 13:23:33;;;;;;;;;;;;;;;;;;7596595;23;19940;-80
2023/04/23 13:26:33;;;;;;;;;;;;;;;;;;7596311;23;19979;-80
2023/04/23 13:29:33;;;;;;;;;;;;;;;;;;7570336;23;19904;-80
2023/04/23 13:32:33;;;;;;;;;;;;;;;;;;7596193;23;20002;-80
2023/04/23 13:35:36;;;;;;;;;;;;;;;;;;7569932;23;19905;-80
2023/04/23 13:38:36;;;;;;;;;;;;;;;;;;7596416;23;20244;-80
2023/04/23 13:41:36;;;;;;;;;;;;;;;;;;7596537;23;20344;-80
2023/04/23 13:44:36;;;;;;;;;;;;;;;;;;7595500;23;19950;-80
2023/04/23 13:47:37;;;;;;;;;;;;;;;;;;7595848;23;20292;-80
2023/04/23 13:50:37;;;;;;;;;;;;;;;;;;7596884;23;19901;-77
2023/04/23 13:53:37;;;;;;;;;;;;;;;;;;7595650;23;19971;-77
2023/04/23 13:56:37;;;;;;;;;;;;;;;;;;7595953;23;19908;-77
2023/04/23 13:59:37;;;;;;;;;;;;;;;;;;7594868;23;19905;-77
2023/04/23 14:02:37;;;;;;;;;;;;;;;;;;7595994;23;19905;-77
2023/04/23 14:05:38;;;;;;;;;;;;;;;;;;7596007;23;20325;-76
2023/04/23 14:08:38;;;;;;;;;;;;;;;;;;7595779;23;19905;-77
2023/04/23 14:11:39;;;;;;;;;;;;;;;;;;7596134;23;19975;-76
2023/04/23 14:14:39;;;;;;;;;;;;;;;;;;7595942;23;20269;-76
2023/04/23 14:17:41;;;;;;;;;;;;;;;;;;7595522;23;20000;-77
2023/04/23 14:20:41;;;;;;;;;;;;;;;;;;7595062;23;19905;-77
2023/04/23 14:23:41;;;;;;;;;;;;;;;;;;7569614;23;19905;-77
2023/04/23 14:26:43;;;;;;;;;;;;;;;;;;7596011;23;19905;-77
2023/04/23 14:29:43;;;;;;;;;;;;;;;;;;7596367;23;19988;-77
2023/04/23 14:32:45;;;;;;;;;;;;;;;;;;7590783;23;19962;-77
2023/04/23 14:35:46;;;;;;;;;;;;;;;;;;7592757;23;20356;-77
2023/04/23 14:38:46;;;;;;;;;;;;;;;;;;7590777;23;20003;-77
2023/04/23 14:41:46;;;;;;;;;;;;;;;;;;7592291;23;19905;-76
2023/04/23 14:44:46;;;;;;;;;;;;;;;;;;7592999;23;19912;-76
2023/04/23 14:47:47;;;;;;;;;;;;;;;;;;7588951;23;19904;-76
2023/04/23 14:50:47;;;;;;;;;;;;;;;;;;7591386;23;19905;-76
2023/04/23 14:53:47;;;;;;;;;;;;;;;;;;7589635;23;19908;-76
2023/04/23 14:56:47;;;;;;;;;;;;;;;;;;7566998;23;20326;-76
2023/04/23 14:59:47;;;;;;;;;;;;;;;;;;7593108;23;19940;-79
2023/04/23 15:02:47;;;;;;;;;;;;;;;;;;7592088;23;19901;-79
2023/04/23 15:05:47;;;;;;;;;;;;;;;;;;7594259;23;19905;-79
2023/04/23 15:08:47;;;;;;;;;;;;;;;;;;7593426;23;19943;-79
2023/04/23 15:11:47;;;;;;;;;;;;;;;;;;7594189;23;19988;-80
2023/04/23 15:14:50;;;;;;;;;;;;;;;;;;7593952;23;19917;-80
2023/04/23 15:17:51;;;;;;;;;;;;;;;;;;7594831;23;19905;-79
2023/04/23 15:20:51;;;;;;;;;;;;;;;;;;7595560;23;19912;-80
2023/04/23 15:23:51;;;;;;;;;;;;;;;;;;7596046;23;20611;-80
2023/04/23 15:26:53;;;;;;;;;;;;;;;;;;7596093;23;19950;-80
2023/04/23 15:29:53;;;;;;;;;;;;;;;;;;7597259;23;19908;-80
2023/04/23 15:32:54;;;;;;;;;;;;;;;;;;7595392;23;19932;-80
2023/04/23 15:35:55;;;;;;;;;;;;;;;;;;7595674;23;19905;-80
2023/04/23 15:38:55;;;;;;;;;;;;;;;;;;7595029;23;20234;-80
2023/04/23 15:41:55;;;;;;;;;;;;;;;;;;7596636;23;19955;-80
2023/04/23 15:44:55;;;;;;;;;;;;;;;;;;7597765;23;19984;-80
2023/04/23 15:47:56;;;;;;;;;;;;;;;;;;7597051;23;19900;-80
2023/04/23 15:50:56;;;;;;;;;;;;;;;;;;7597612;23;20393;-80
2023/04/23 15:53:56;;;;;;;;;;;;;;;;;;7568787;23;19932;-80
2023/04/23 15:56:56;;;;;;;;;;;;;;;;;;7596937;23;19927;-79
2023/04/23 15:59:56;;;;;;;;;;;;;;;;;;7571055;23;19908;-80
2023/04/23 16:02:57;;;;;;;;;;;;;;;;;;7598040;23;20237;-80
2023/04/23 16:05:57;;;;;;;;;;;;;;;;;;7597317;23;19909;-81
2023/04/23 16:08:57;;;;;;;;;;;;;;;;;;7597561;23;19904;-81
2023/04/23 16:11:57;;;;;;;;;;;;;;;;;;7597248;23;19940;-80
2023/04/23 16:14:58;;;;;;;;;;;;;;;;;;7597237;23;19991;-80
2023/04/23 16:17:58;;;;;;;;;;;;;;;;;;7597051;23;19909;-80
2023/04/23 16:21:00;;;;;;;;;;;;;;;;;;7571366;23;19923;-77
2023/04/23 16:24:00;;;;;;;;;;;;;;;;;;7596483;23;19975;-77
2023/04/23 16:27:01;;;;;;;;;;;;;;;;;;7596501;23;19901;-77
2023/04/23 16:30:01;;;;;;;;;;;;;;;;;;7596480;23;19912;-77
2023/04/23 16:33:01;;;;;;;;;;;;;;;;;;7596669;23;19909;-77
2023/04/23 16:36:01;;;;;;;;;;;;;;;;;;7597191;23;19951;-77
2023/04/23 16:39:03;;;;;;;;;;;;;;;;;;7596305;23;19908;-77
2023/04/23 16:42:03;;;;;;;;;;;;;;;;;;7597137;23;19987;-77
2023/04/23 16:45:03;;;;;;;;;;;;;;;;;;7597000;23;19911;-77
2023/04/23 16:48:03;;;;;;;;;;;;;;;;;;7595978;23;19928;-77
2023/04/23 16:51:03;;;;;;;;;;;;;;;;;;7596814;23;19901;-77
2023/04/23 16:54:03;;;;;;;;;;;;;;;;;;7596005;23;19991;-77
2023/04/23 16:57:05;;;;;;;;;;;;;;;;;;7597391;23;20370;-77
2023/04/23 17:00:06;;;;;;;;;;;;;;;;;;7596443;23;19908;-77
2023/04/23 17:03:06;;;;;;;;;;;;;;;;;;7596419;23;19905;-77
2023/04/23 17:06:07;;;;;;;;;;;;;;;;;;7596900;23;19905;-77
2023/04/23 17:09:09;;;;;;;;;;;;;;;;;;7596278;23;19917;-77
2023/04/23 17:12:09;;;;;;;;;;;;;;;;;;7595706;23;19963;-77
2023/04/23 17:15:09;;;;;;;;;;;;;;;;;;7596230;23;20272;-77
2023/04/23 17:18:09;;;;;;;;;;;;;;;;;;7595704;23;19901;-77
2023/04/23 17:21:09;;;;;;;;;;;;;;;;;;7570478;23;19905;-81
2023/04/23 17:24:10;;;;;;;;;;;;;;;;;;7570610;23;19901;-81
2023/04/23 17:27:10;;;;;;;;;;;;;;;;;;7596809;23;19951;-81
2023/04/23 17:30:10;;;;;;;;;;;;;;;;;;7597102;23;19901;-77
2023/04/23 17:33:13;;;;;;;;;;;;;;;;;;7595274;23;19904;-79
2023/04/23 17:36:18;;;;;;;;;;;;;;;;;;7596775;23;19947;-77
2023/04/23 17:39:21;;;;;;;;;;;;;;;;;;7596483;23;20489;-77
2023/04/23 17:42:21;;;;;;;;;;;;;;;;;;7596514;23;20309;-77
2023/04/23 17:45:21;;;;;;;;;;;;;;;;;;7596816;23;19901;-77
2023/04/23 17:48:22;;;;;;;;;;;;;;;;;;7598220;23;19911;-77
2023/04/23 17:51:22;;;;;;;;;;;;;;;;;;7595367;23;20212;-77
2023/04/23 17:54:22;;;;;;;;;;;;;;;;;;7596054;23;20325;-77
2023/04/23 17:57:22;;;;;;;;;;;;;;;;;;7596236;23;19912;-77
2023/04/23 18:00:23;;;;;;;;;;;;;;;;;;7596039;23;20008;-77
2023/04/23 18:03:25;;;;;;;;;;;;;;;;;;7596551;23;19966;-77
2023/04/23 18:06:25;;;;;;;;;;;;;;;;;;7595869;23;19901;-76
2023/04/23 18:09:26;;;;;;;;;;;;;;;;;;7595626;23;19978;-77
2023/04/23 18:12:26;;;;;;;;;;;;;;;;;;7594999;23;19909;-77
2023/04/23 18:15:32;;;;;;;;;;;;;;;;;;7594960;23;19901;-80
2023/04/23 18:18:32;;;;;;;;;;;;;;;;;;7594931;23;19905;-77
2023/04/23 18:21:32;;;;;;;;;;;;;;;;;;7568251;23;19901;-77
2023/04/23 18:24:33;;;;;;;;;;;;;;;;;;7595141;23;19980;-77
2023/04/23 18:27:33;;;;;;;;;;;;;;;;;;7595046;23;19962;-77
2023/04/23 18:30:33;;;;;;;;;;;;;;;;;;7595843;23;19905;-80
2023/04/23 18:33:33;;;;;;;;;;;;;;;;;;7597333;23;19908;-80
2023/04/23 18:36:33;;;;;;;;;;;;;;;;;;7596975;23;20352;-80
2023/04/23 18:39:33;;;;;;;;;;;;;;;;;;7595622;23;19939;-80
2023/04/23 18:42:33;;;;;;;;;;;;;;;;;;7595719;23;20249;-80
2023/04/23 18:45:34;;;;;;;;;;;;;;;;;;7595675;23;19958;-80
2023/04/23 18:48:34;;;;;;;;;;;;;;;;;;7570295;23;19909;-81
2023/04/23 18:51:34;;;;;;;;;;;;;;;;;;7595549;23;19905;-81
2023/04/23 18:54:35;;;;;;;;;;;;;;;;;;7596263;23;19905;-80
2023/04/23 18:57:35;;;;;;;;;;;;;;;;;;7595790;23;19986;-80
2023/04/23 19:00:35;;;;;;;;;;;;;;;;;;7595777;23;20287;-81
2023/04/23 19:03:35;;;;;;;;;;;;;;;;;;7596097;23;19901;-81
2023/04/23 19:06:36;;;;;;;;;;;;;;;;;;7596698;23;19901;-81
2023/04/23 19:09:36;;;;;;;;;;;;;;;;;;7595594;23;19901;-81
2023/04/23 19:12:37;;;;;;;;;;;;;;;;;;7595858;23;19909;-80
2023/04/23 19:15:37;;;;;;;;;;;;;;;;;;7595904;23;19916;-81
2023/04/23 19:18:37;;;;;;;;;;;;;;;;;;7596456;23;19940;-81
2023/04/23 19:21:37;;;;;;;;;;;;;;;;;;7594806;23;20403;-81
2023/04/23 19:24:37;;;;;;;;;;;;;;;;;;7595906;23;19928;-81
2023/04/23 19:27:39;;;;;;;;;;;;;;;;;;7595469;23;19901;-81
2023/04/23 19:30:39;;;;;;;;;;;;;;;;;;7596529;23;19905;-79
2023/04/23 19:33:41;;;;;;;;;;;;;;;;;;7597369;23;19909;-81
2023/04/23 19:36:41;;;;;;;;;;;;;;;;;;7596715;23;19908;-81
2023/04/23 19:39:41;;;;;;;;;;;;;;;;;;7594798;23;19901;-78
2023/04/23 19:42:41;;;;;;;;;;;;;;;;;;7595058;23;20336;-77
2023/04/23 19:45:41;;;;;;;;;;;;;;;;;;7595484;23;20325;-78
2023/04/23 19:48:42;;;;;;;;;;;;;;;;;;7570403;23;19901;-77
2023/04/23 19:51:42;;;;;;;;;;;;;;;;;;7599773;23;19912;-80
2023/04/23 19:54:47;;;;;;;;;;;;;;;;;;7597784;23;19909;-80
2023/04/23 19:57:48;;;;;;;;;;;;;;;;;;7572407;23;19905;-82
2023/04/23 20:00:48;;;;;;;;;;;;;;;;;;7599020;23;19905;-80
2023/04/23 20:03:50;;;;;;;;;;;;;;;;;;7596835;23;19912;-81
2023/04/23 20:06:50;;;;;;;;;;;;;;;;;;7597725;23;19901;-80
2023/04/23 20:09:50;;;;;;;;;;;;;;;;;;7597313;23;19901;-80
2023/04/23 20:12:50;;;;;;;;;;;;;;;;;;7596761;23;19912;-80
2023/04/23 20:15:52;;;;;;;;;;;;;;;;;;7596774;23;19901;-81
2023/04/23 20:18:54;;;;;;;;;;;;;;;;;;7596879;23;19955;-81
2023/04/23 20:21:54;;;;;;;;;;;;;;;;;;7596031;23;20245;-80
2023/04/23 20:24:54;;;;;;;;;;;;;;;;;;7597524;23;19951;-80
2023/04/23 20:27:55;;;;;;;;;;;;;;;;;;7596523;23;19932;-80
2023/04/23 20:30:55;;;;;;;;;;;;;;;;;;7597516;23;19940;-81